Time;durP1;ratioP1;P1;durP2;ratioP2;P2;SDS_P1;SDS_P2;PMS_P1;PMS_P2;Temp;Humidity;BMP_temperature;BMP_pressure;BME280_temperature;BME280_humidity;BME280_pressure;Samples;Min_cycle;Max_cycle;Signal;HPM_P1;HPM_P2
2022/02/23 00:00:41;;;;;;;20.38;4.07;;;6.70;99.90;;;;;;5033314;28;20022;-51
2022/02/23 00:03:07;;;;;;;16.50;4.32;;;6.70;99.90;;;;;;5033462;28;20030;-50
2022/02/23 00:05:33;;;;;;;12.65;4.00;;;6.60;99.90;;;;;;5033714;28;20090;-50
2022/02/23 00:07:58;;;;;;;15.00;4.28;;;6.60;99.90;;;;;;5033359;28;20037;-51
2022/02/23 00:10:24;;;;;;;15.93;3.85;;;6.60;99.90;;;;;;5032966;28;20017;-51
2022/02/23 00:12:50;;;;;;;18.55;4.30;;;6.50;99.90;;;;;;5033581;28;20064;-51
2022/02/23 00:15:15;;;;;;;16.35;4.05;;;6.50;99.90;;;;;;5033217;28;20025;-50
2022/02/23 00:17:41;;;;;;;16.35;4.60;;;6.50;99.90;;;;;;5033519;28;20494;-50
2022/02/23 00:20:08;;;;;;;20.20;4.47;;;6.40;99.90;;;;;;5033382;28;20411;-50
2022/02/23 00:22:34;;;;;;;17.05;4.65;;;6.40;99.90;;;;;;5033751;28;20036;-50
2022/02/23 00:25:01;;;;;;;18.42;3.90;;;6.40;99.90;;;;;;5033838;28;20026;-51
2022/02/23 00:27:27;;;;;;;16.20;3.97;;;6.40;99.90;;;;;;5032698;28;20314;-50
2022/02/23 00:29:56;;;;;;;19.40;3.40;;;6.40;99.90;;;;;;5033365;28;20304;-50
2022/02/23 00:32:22;;;;;;;11.52;3.42;;;6.40;99.90;;;;;;5031830;28;20030;-50
2022/02/23 00:34:48;;;;;;;16.98;3.83;;;6.40;99.90;;;;;;5033364;28;20048;-50
2022/02/23 00:37:15;;;;;;;14.30;3.20;;;6.30;99.90;;;;;;5031882;28;20521;-50
2022/02/23 00:39:41;;;;;;;14.60;3.30;;;6.30;99.90;;;;;;5033172;28;20104;-50
2022/02/23 00:42:07;;;;;;;16.50;3.50;;;6.30;99.90;;;;;;5032242;28;20104;-50
2022/02/23 00:44:33;;;;;;;15.18;3.50;;;6.30;99.90;;;;;;5032913;28;20029;-50
2022/02/23 00:46:59;;;;;;;17.38;3.72;;;6.30;99.90;;;;;;5031971;28;20082;-50
2022/02/23 00:49:26;;;;;;;16.63;4.18;;;6.30;99.90;;;;;;5031967;28;20025;-50
2022/02/23 00:51:52;;;;;;;14.45;3.30;;;6.30;99.90;;;;;;5032710;28;20017;-50
2022/02/23 00:54:18;;;;;;;17.85;4.78;;;6.30;99.90;;;;;;5033048;28;20045;-50
2022/02/23 00:56:46;;;;;;;12.80;3.30;;;6.30;99.90;;;;;;5032231;28;20025;-50
2022/02/23 00:59:12;;;;;;;16.98;3.50;;;6.20;99.90;;;;;;5032334;28;20025;-50
2022/02/23 01:01:38;;;;;;;18.90;3.88;;;6.20;99.90;;;;;;5032441;28;20032;-50
2022/02/23 01:04:04;;;;;;;14.77;3.60;;;6.20;99.90;;;;;;5031481;28;20116;-50
2022/02/23 01:06:30;;;;;;;18.75;3.65;;;6.30;99.90;;;;;;5032523;28;20064;-50
2022/02/23 01:08:56;;;;;;;16.10;3.70;;;6.30;99.90;;;;;;5032072;28;20111;-50
2022/02/23 01:11:22;;;;;;;12.82;3.80;;;6.30;99.90;;;;;;5032157;28;20123;-51
2022/02/23 01:13:49;;;;;;;22.15;3.40;;;6.30;99.90;;;;;;5031688;28;20383;-50
2022/02/23 01:16:15;;;;;;;15.13;3.15;;;6.30;99.90;;;;;;5031470;28;20394;-50
2022/02/23 01:18:41;;;;;;;17.85;3.65;;;6.20;99.90;;;;;;5031645;28;20027;-50
2022/02/23 01:21:06;;;;;;;17.85;2.95;;;6.20;99.90;;;;;;5031175;28;20038;-49
2022/02/23 01:23:32;;;;;;;17.48;3.35;;;6.10;99.90;;;;;;5031538;28;20025;-51
2022/02/23 01:25:57;;;;;;;15.00;3.40;;;6.00;99.90;;;;;;5031564;28;20073;-51
2022/02/23 01:28:23;;;;;;;22.40;3.17;;;6.00;99.90;;;;;;5031318;28;20040;-50
2022/02/23 01:30:49;;;;;;;16.27;3.58;;;6.00;99.90;;;;;;5031175;28;20073;-50
2022/02/23 01:33:14;;;;;;;15.63;3.60;;;6.00;99.90;;;;;;5031167;28;20032;-50
2022/02/23 01:35:40;;;;;;;17.50;3.20;;;6.00;99.90;;;;;;5031320;28;20032;-50
2022/02/23 01:38:06;;;;;;;15.52;3.50;;;6.00;99.90;;;;;;5031446;28;20442;-49
2022/02/23 01:40:32;;;;;;;13.93;3.20;;;6.00;99.90;;;;;;5031166;28;20022;-50
2022/02/23 01:42:57;;;;;;;19.52;3.65;;;6.00;99.90;;;;;;5031120;28;20034;-50
2022/02/23 01:45:23;;;;;;;13.20;3.00;;;6.00;99.90;;;;;;5030948;28;20029;-50
2022/02/23 01:47:49;;;;;;;12.88;2.85;;;6.00;99.90;;;;;;5031558;28;20030;-50
2022/02/23 01:50:16;;;;;;;17.92;2.88;;;6.10;99.90;;;;;;5031461;28;20021;-49
2022/02/23 01:52:42;;;;;;;14.02;3.20;;;6.10;99.90;;;;;;5030855;28;20036;-50
2022/02/23 01:55:08;;;;;;;17.90;3.70;;;6.10;99.90;;;;;;5031178;28;20022;-50
2022/02/23 01:57:34;;;;;;;18.98;3.50;;;6.00;99.90;;;;;;5031475;28;20033;-51
2022/02/23 02:00:00;;;;;;;18.15;3.55;;;6.00;99.90;;;;;;5031280;28;20056;-50
2022/02/23 02:02:26;;;;;;;16.95;3.70;;;6.00;99.90;;;;;;5031531;28;20095;-50
2022/02/23 02:04:52;;;;;;;18.13;3.60;;;6.00;99.90;;;;;;5031755;28;20034;-50
2022/02/23 02:07:18;;;;;;;19.38;4.18;;;6.00;99.90;;;;;;5031764;28;20025;-50
2022/02/23 02:09:43;;;;;;;21.10;4.10;;;6.00;99.90;;;;;;5031267;28;20352;-51
2022/02/23 02:12:09;;;;;;;15.13;3.83;;;6.00;99.90;;;;;;5031696;28;20445;-50
2022/02/23 02:14:35;;;;;;;17.23;3.20;;;5.90;99.90;;;;;;5031427;28;20029;-50
2022/02/23 02:17:01;;;;;;;21.00;4.78;;;5.90;99.90;;;;;;5031267;28;20306;-50
2022/02/23 02:19:26;;;;;;;15.65;3.58;;;5.90;99.90;;;;;;5031538;28;20112;-49
2022/02/23 02:21:54;;;;;;;15.85;3.88;;;5.90;99.90;;;;;;5031634;28;20108;-49
2022/02/23 02:24:22;;;;;;;13.18;3.15;;;5.90;99.90;;;;;;5031808;28;20378;-50
2022/02/23 02:26:48;;;;;;;14.55;3.72;;;5.90;99.90;;;;;;5032173;28;20544;-50
2022/02/23 02:29:13;;;;;;;13.48;3.75;;;5.80;99.90;;;;;;5031609;28;20025;-50
2022/02/23 02:31:39;;;;;;;13.50;3.53;;;5.90;99.90;;;;;;5030666;28;20057;-50
2022/02/23 02:34:04;;;;;;;16.42;3.75;;;5.90;99.90;;;;;;5031610;28;20501;-50
2022/02/23 02:36:30;;;;;;;16.50;4.18;;;5.80;99.90;;;;;;5033478;28;20451;-50
2022/02/23 02:38:56;;;;;;;19.83;4.18;;;5.80;99.90;;;;;;5031891;28;20067;-50
2022/02/23 02:41:21;;;;;;;17.63;3.50;;;5.80;99.90;;;;;;5031299;28;20510;-50
2022/02/23 02:43:47;;;;;;;14.32;3.72;;;5.80;99.90;;;;;;5031261;28;20406;-50
2022/02/23 02:46:13;;;;;;;19.25;4.25;;;5.80;99.90;;;;;;5031115;28;20020;-50
2022/02/23 02:48:38;;;;;;;20.30;4.22;;;5.70;99.90;;;;;;5031272;28;20466;-50
2022/02/23 02:51:04;;;;;;;20.25;4.07;;;5.80;99.90;;;;;;5031252;28;20241;-50
2022/02/23 02:53:29;;;;;;;24.60;4.05;;;5.70;99.90;;;;;;5030840;28;20083;-51
2022/02/23 02:55:55;;;;;;;18.75;4.03;;;5.70;99.90;;;;;;5030383;28;20427;-50
2022/02/23 02:58:21;;;;;;;14.50;4.47;;;5.70;99.90;;;;;;5030937;28;20064;-50
2022/02/23 03:00:46;;;;;;;14.65;4.07;;;5.70;99.90;;;;;;5030965;28;20022;-50
2022/02/23 03:03:12;;;;;;;16.77;4.15;;;5.70;99.90;;;;;;5030553;28;20022;-50
2022/02/23 03:05:38;;;;;;;16.55;5.00;;;5.70;99.90;;;;;;5034014;28;20029;-50
2022/02/23 03:08:03;;;;;;;21.35;4.20;;;5.70;99.90;;;;;;5034714;28;20034;-50
2022/02/23 03:10:29;;;;;;;16.23;4.25;;;5.70;99.90;;;;;;5034635;28;20033;-51
2022/02/23 03:12:55;;;;;;;18.83;4.30;;;5.70;99.90;;;;;;5034911;28;20108;-50
2022/02/23 03:15:20;;;;;;;16.92;4.45;;;5.70;99.90;;;;;;5034306;28;20025;-50
2022/02/23 03:17:46;;;;;;;16.33;4.40;;;5.60;99.90;;;;;;5034422;28;20018;-51
2022/02/23 03:20:12;;;;;;;16.00;4.15;;;5.70;99.90;;;;;;5034329;28;20029;-50
2022/02/23 03:22:37;;;;;;;20.80;4.60;;;5.70;99.90;;;;;;5034320;28;20053;-50
2022/02/23 03:25:04;;;;;;;19.08;3.95;;;5.60;99.90;;;;;;5035012;28;20034;-50
2022/02/23 03:27:30;;;;;;;19.92;4.20;;;5.70;99.90;;;;;;5034222;28;20107;-50
2022/02/23 03:29:56;;;;;;;18.95;4.20;;;5.60;99.90;;;;;;5034474;28;20037;-50
2022/02/23 03:32:22;;;;;;;20.48;4.40;;;5.60;99.90;;;;;;5033934;28;20036;-50
2022/02/23 03:34:47;;;;;;;21.50;4.70;;;5.60;99.90;;;;;;5033895;28;20029;-51
2022/02/23 03:37:13;;;;;;;20.10;4.85;;;5.60;99.90;;;;;;5034343;28;20037;-50
2022/02/23 03:39:39;;;;;;;18.48;4.65;;;5.60;99.90;;;;;;5034069;28;20069;-50
2022/02/23 03:42:05;;;;;;;19.52;4.40;;;5.50;99.90;;;;;;5033581;28;20382;-50
2022/02/23 03:44:31;;;;;;;19.63;4.95;;;5.50;99.90;;;;;;5033683;28;20511;-51
2022/02/23 03:46:56;;;;;;;18.25;4.10;;;5.50;99.90;;;;;;5034266;28;20433;-50
2022/02/23 03:49:22;;;;;;;15.98;4.05;;;5.50;99.90;;;;;;5034029;28;20026;-50
2022/02/23 03:51:47;;;;;;;18.92;4.43;;;5.50;99.90;;;;;;5033964;28;20422;-49
2022/02/23 03:54:13;;;;;;;16.67;4.57;;;5.50;99.90;;;;;;5034046;28;20395;-50
2022/02/23 03:56:39;;;;;;;18.52;4.30;;;5.50;99.90;;;;;;5034088;28;20045;-50
2022/02/23 03:59:08;;;;;;;20.20;4.05;;;5.50;99.90;;;;;;5033678;28;20494;-50
2022/02/23 04:01:39;;;;;;;17.77;4.10;;;5.50;99.90;;;;;;5033875;28;20022;-50
2022/02/23 04:04:06;;;;;;;18.83;4.68;;;5.50;99.90;;;;;;5033480;28;20030;-50
2022/02/23 04:06:33;;;;;;;17.98;4.60;;;5.50;99.90;;;;;;5033361;28;20095;-51
2022/02/23 04:09:00;;;;;;;21.05;4.90;;;5.50;99.90;;;;;;5033656;28;20178;-49
2022/02/23 04:11:27;;;;;;;21.83;5.07;;;5.50;99.90;;;;;;5033491;28;20024;-51
2022/02/23 04:13:53;;;;;;;13.30;3.92;;;5.40;99.90;;;;;;5033607;28;20033;-51
2022/02/23 04:16:19;;;;;;;22.25;4.57;;;5.40;99.90;;;;;;5032268;28;20048;-50
2022/02/23 04:18:45;;;;;;;22.50;5.25;;;5.40;99.90;;;;;;5033423;28;20018;-51
2022/02/23 04:21:11;;;;;;;17.17;5.03;;;5.40;99.90;;;;;;5032980;28;20728;-51
2022/02/23 04:23:37;;;;;;;20.92;5.57;;;5.40;99.90;;;;;;5033554;28;20086;-51
2022/02/23 04:26:03;;;;;;;23.35;4.70;;;5.40;99.90;;;;;;5033196;28;20026;-51
2022/02/23 04:28:31;;;;;;;18.23;4.70;;;5.40;99.90;;;;;;5032985;28;20108;-50
2022/02/23 04:30:57;;;;;;;16.15;4.53;;;5.40;99.90;;;;;;5033060;28;20099;-50
2022/02/23 04:33:23;;;;;;;22.17;4.97;;;5.30;99.90;;;;;;5033251;28;20025;-50
2022/02/23 04:35:48;;;;;;;22.55;4.97;;;5.20;99.90;;;;;;5037434;28;20040;-51
2022/02/23 04:38:15;;;;;;;14.00;4.55;;;5.10;99.90;;;;;;5032750;28;20029;-50
2022/02/23 04:40:43;;;;;;;18.40;5.07;;;5.00;99.90;;;;;;5033372;28;20045;-50
2022/02/23 04:43:12;;;;;;;22.52;4.90;;;4.90;99.90;;;;;;5033055;28;20104;-49
2022/02/23 04:45:37;;;;;;;17.58;4.88;;;4.70;99.90;;;;;;5033221;28;20025;-50
2022/02/23 04:48:03;;;;;;;23.02;5.35;;;4.60;99.90;;;;;;5032893;28;20088;-50
2022/02/23 04:50:29;;;;;;;24.63;5.60;;;4.60;99.90;;;;;;5033009;28;20036;-50
2022/02/23 04:52:54;;;;;;;20.92;6.03;;;4.60;99.90;;;;;;5033246;28;20294;-50
2022/02/23 04:55:20;;;;;;;21.77;5.95;;;4.70;99.90;;;;;;5033887;28;20019;-51
2022/02/23 04:57:46;;;;;;;25.13;5.53;;;4.70;99.90;;;;;;5033048;28;20029;-50
2022/02/23 05:00:12;;;;;;;19.40;5.60;;;4.60;99.90;;;;;;5032566;28;20120;-50
2022/02/23 05:02:38;;;;;;;26.15;5.82;;;4.70;99.90;;;;;;5033057;28;20552;-50
2022/02/23 05:05:04;;;;;;;20.05;5.25;;;4.60;99.90;;;;;;5033310;28;20033;-50
2022/02/23 05:07:30;;;;;;;19.38;5.45;;;4.60;99.90;;;;;;5033729;28;20029;-50
2022/02/23 05:09:56;;;;;;;20.23;5.80;;;4.50;99.90;;;;;;5033858;28;20025;-50
2022/02/23 05:12:22;;;;;;;19.73;5.32;;;4.40;99.90;;;;;;5032613;28;20029;-50
2022/02/23 05:14:47;;;;;;;20.55;5.32;;;4.30;99.90;;;;;;5032722;28;20112;-50
2022/02/23 05:17:14;;;;;;;27.33;6.10;;;4.10;99.90;;;;;;5032608;28;20025;-50
2022/02/23 05:19:41;;;;;;;17.75;6.22;;;3.90;99.90;;;;;;5033390;28;20095;-50
2022/02/23 05:22:07;;;;;;;23.20;5.82;;;3.80;99.90;;;;;;5032435;28;20075;-50
2022/02/23 05:24:33;;;;;;;17.92;6.00;;;3.80;99.90;;;;;;5032086;28;20470;-50
2022/02/23 05:26:59;;;;;;;22.85;5.38;;;3.80;99.90;;;;;;5032711;28;20269;-50
2022/02/23 05:29:26;;;;;;;25.42;6.20;;;3.90;99.90;;;;;;5031978;28;20506;-50
2022/02/23 05:31:52;;;;;;;23.48;6.03;;;4.00;99.90;;;;;;5032601;28;20021;-49
2022/02/23 05:34:18;;;;;;;23.50;6.43;;;4.00;99.90;;;;;;5032762;28;20040;-50
2022/02/23 05:36:44;;;;;;;23.42;6.18;;;4.00;99.90;;;;;;5032370;28;20029;-50
2022/02/23 05:39:10;;;;;;;21.67;5.88;;;3.90;99.90;;;;;;5031373;28;20037;-50
2022/02/23 05:41:36;;;;;;;16.08;6.38;;;3.70;99.90;;;;;;5030998;28;20391;-50
2022/02/23 05:44:01;;;;;;;13.38;5.60;;;3.60;99.90;;;;;;5031718;28;20022;-50
2022/02/23 05:46:27;;;;;;;22.92;6.40;;;3.30;99.90;;;;;;5032585;28;20156;-50
2022/02/23 05:48:53;;;;;;;27.67;7.38;;;3.30;99.90;;;;;;5031910;28;20349;-50
2022/02/23 05:51:27;;;;;;;28.80;7.63;;;3.50;99.90;;;;;;5032730;28;20119;-50
2022/02/23 05:53:53;;;;;;;23.52;7.30;;;3.70;99.90;;;;;;5032135;28;20389;-51
2022/02/23 05:56:18;;;;;;;23.17;8.27;;;3.90;99.90;;;;;;5031940;28;20097;-50
2022/02/23 05:58:44;;;;;;;28.83;9.43;;;4.10;99.90;;;;;;5032518;28;20038;-50
2022/02/23 06:01:13;;;;;;;26.17;7.97;;;4.10;99.90;;;;;;5031965;28;20076;-50
2022/02/23 06:03:39;;;;;;;24.63;8.13;;;4.00;99.90;;;;;;5032582;28;20474;-50
2022/02/23 06:06:05;;;;;;;28.35;8.75;;;4.00;99.90;;;;;;5032167;28;20021;-50
2022/02/23 06:08:31;;;;;;;31.67;9.93;;;4.00;99.90;;;;;;5030813;28;20022;-50
2022/02/23 06:10:57;;;;;;;30.80;8.98;;;4.00;99.90;;;;;;5032036;28;20029;-49
2022/02/23 06:13:23;;;;;;;27.75;9.23;;;4.10;99.90;;;;;;5032075;28;20029;-50
2022/02/23 06:15:48;;;;;;;34.40;9.35;;;4.10;99.90;;;;;;5032404;28;20052;-50
2022/02/23 06:18:15;;;;;;;24.63;9.00;;;4.10;99.90;;;;;;5031209;28;20025;-50
2022/02/23 06:20:41;;;;;;;26.10;8.95;;;4.00;99.90;;;;;;5032301;28;20049;-50
2022/02/23 06:23:07;;;;;;;28.73;8.93;;;4.00;99.90;;;;;;5031719;28;20052;-50
2022/02/23 06:25:33;;;;;;;25.85;8.02;;;4.00;99.90;;;;;;5031631;28;20089;-50
2022/02/23 06:28:02;;;;;;;22.15;8.52;;;3.90;99.90;;;;;;5032439;28;20034;-50
2022/02/23 06:30:27;;;;;;;26.27;9.38;;;4.00;99.90;;;;;;5031977;28;20200;-51
2022/02/23 06:32:53;;;;;;;27.88;8.98;;;4.00;99.90;;;;;;5031442;28;20495;-51
2022/02/23 06:35:19;;;;;;;28.25;9.68;;;4.00;99.90;;;;;;5032371;28;20037;-51
2022/02/23 06:37:44;;;;;;;30.85;10.27;;;3.80;99.90;;;;;;5031551;28;20514;-51
2022/02/23 06:40:11;;;;;;;37.22;10.60;;;3.80;99.90;;;;;;5033657;28;20026;-50
2022/02/23 06:42:37;;;;;;;29.02;9.52;;;3.80;99.90;;;;;;5035786;28;20034;-50
2022/02/23 06:45:04;;;;;;;29.08;9.73;;;3.80;99.90;;;;;;5036276;28;20036;-51
2022/02/23 06:47:30;;;;;;;35.60;11.18;;;3.80;99.90;;;;;;5035705;28;20109;-51
2022/02/23 06:49:56;;;;;;;27.55;9.50;;;3.80;99.90;;;;;;5041195;28;20048;-51
2022/02/23 06:52:23;;;;;;;35.00;9.68;;;3.80;99.90;;;;;;5049542;28;20056;-51
2022/02/23 06:54:49;;;;;;;32.38;9.48;;;3.80;99.90;;;;;;5052626;28;20021;-50
2022/02/23 06:57:15;;;;;;;33.10;9.82;;;3.90;99.90;;;;;;5054842;28;20039;-51
2022/02/23 06:59:41;;;;;;;26.33;9.60;;;3.90;99.90;;;;;;5044343;28;20005;-48
2022/02/23 07:02:08;;;;;;;28.15;9.55;;;3.80;99.90;;;;;;5041823;28;20393;-51
2022/02/23 07:04:34;;;;;;;26.27;10.73;;;3.80;99.90;;;;;;5047879;28;20032;-49
2022/02/23 07:07:00;;;;;;;33.03;12.77;;;3.70;99.90;;;;;;5049115;28;20033;-50
2022/02/23 07:09:26;;;;;;;31.20;11.68;;;3.80;99.90;;;;;;5043659;28;20116;-50
2022/02/23 07:11:52;;;;;;;26.40;11.65;;;3.80;99.90;;;;;;5046597;28;20066;-51
2022/02/23 07:14:19;;;;;;;29.25;10.45;;;3.80;99.90;;;;;;5041313;28;20028;-51
2022/02/23 07:16:44;;;;;;;30.40;10.45;;;3.90;99.90;;;;;;5044263;28;20037;-51
2022/02/23 07:19:10;;;;;;;27.55;10.50;;;3.90;99.90;;;;;;5040945;28;20029;-51
2022/02/23 07:21:38;;;;;;;33.17;11.18;;;3.90;99.90;;;;;;5042635;28;20033;-48
2022/02/23 07:24:04;;;;;;;28.30;10.90;;;4.10;99.90;;;;;;5042921;28;20039;-51
2022/02/23 07:26:30;;;;;;;32.55;11.32;;;4.20;99.90;;;;;;5045282;28;20116;-48
2022/02/23 07:28:55;;;;;;;34.10;11.90;;;4.30;99.90;;;;;;5043479;28;22096;-51
2022/02/23 07:31:21;;;;;;;25.15;9.63;;;4.30;99.90;;;;;;5042622;28;20048;-49
2022/02/23 07:33:47;;;;;;;30.23;10.80;;;4.40;99.90;;;;;;5038224;28;20578;-49
2022/02/23 07:36:14;;;;;;;26.35;9.77;;;4.40;99.90;;;;;;5045119;28;20021;-48
2022/02/23 07:38:41;;;;;;;24.27;8.68;;;4.40;99.90;;;;;;5039234;28;20044;-49
2022/02/23 07:41:10;;;;;;;30.95;9.07;;;4.50;99.90;;;;;;5040187;28;20016;-50
2022/02/23 07:43:37;;;;;;;27.92;9.48;;;4.50;99.90;;;;;;5038152;28;20123;-49
2022/02/23 07:46:02;;;;;;;26.17;10.02;;;4.50;99.90;;;;;;5043438;28;20029;-49
2022/02/23 07:48:28;;;;;;;25.45;9.50;;;4.50;99.90;;;;;;5033614;28;20043;-49
2022/02/23 07:50:54;;;;;;;18.13;8.27;;;4.60;99.90;;;;;;5041251;28;20036;-49
2022/02/23 07:53:20;;;;;;;25.90;9.40;;;4.60;99.90;;;;;;5043048;28;20136;-50
2022/02/23 07:55:45;;;;;;;25.13;8.55;;;4.70;99.90;;;;;;5037843;28;20107;-49
2022/02/23 07:58:11;;;;;;;23.40;9.15;;;4.80;99.90;;;;;;5045147;28;20771;-49
2022/02/23 08:00:38;;;;;;;25.83;8.18;;;4.90;99.90;;;;;;5045888;28;20033;-49
2022/02/23 08:03:04;;;;;;;26.00;9.85;;;4.90;99.90;;;;;;5042016;28;20037;-49
2022/02/23 08:05:30;;;;;;;21.83;8.38;;;4.90;99.90;;;;;;5049790;28;20036;-49
2022/02/23 08:07:57;;;;;;;25.00;8.77;;;5.00;99.90;;;;;;5042796;28;20028;-50
2022/02/23 08:10:23;;;;;;;26.20;8.95;;;5.10;99.90;;;;;;5045047;28;20021;-50
2022/02/23 08:12:53;;;;;;;22.30;8.32;;;5.20;99.90;;;;;;5045226;28;20021;-50
2022/02/23 08:20:48;;;;;;;35.88;9.73;;;5.40;99.90;;;;;;5040416;28;20044;-49
2022/02/23 08:23:16;;;;;;;26.45;7.32;;;5.40;99.90;;;;;;5046538;28;20029;-50
2022/02/23 08:25:42;;;;;;;26.13;7.88;;;5.40;99.90;;;;;;5046096;28;20457;-49
2022/02/23 08:28:08;;;;;;;19.50;7.07;;;5.80;99.90;;;;;;5040570;28;20029;-50
2022/02/23 08:30:34;;;;;;;27.25;7.07;;;6.70;99.90;;;;;;5037722;28;20041;-50
2022/02/23 08:33:03;;;;;;;17.13;5.78;;;7.60;99.90;;;;;;5035110;28;20409;-50
2022/02/23 08:35:32;;;;;;;20.10;6.85;;;8.20;99.90;;;;;;5037538;28;20371;-50
2022/02/23 08:37:59;;;;;;;14.88;6.13;;;8.10;99.90;;;;;;5041565;28;20041;-50
2022/02/23 08:40:26;;;;;;;24.52;6.13;;;8.40;99.90;;;;;;5042310;28;20040;-50
2022/02/23 08:42:53;;;;;;;21.55;6.38;;;8.90;99.90;;;;;;5043825;28;20145;-50
2022/02/23 08:45:18;;;;;;;17.30;6.13;;;8.80;99.90;;;;;;5044950;28;20526;-50
2022/02/23 08:47:44;;;;;;;23.45;6.63;;;8.90;99.90;;;;;;5040887;28;20104;-50
2022/02/23 08:50:10;;;;;;;18.42;6.70;;;9.00;99.90;;;;;;5044943;28;20037;-51
2022/02/23 08:52:36;;;;;;;21.30;8.40;;;9.40;99.90;;;;;;5036218;28;20368;-51
2022/02/23 08:55:03;;;;;;;24.58;6.75;;;9.90;99.90;;;;;;5042354;28;20067;-51
2022/02/23 08:57:29;;;;;;;22.50;6.13;;;10.40;99.90;;;;;;5035214;28;20025;-51
2022/02/23 08:59:55;;;;;;;17.40;6.00;;;10.30;99.90;;;;;;5036625;28;20376;-50
2022/02/23 09:02:21;;;;;;;22.35;6.10;;;10.30;99.90;;;;;;5037560;28;20359;-51
2022/02/23 09:04:46;;;;;;;16.40;5.53;;;10.60;99.90;;;;;;5039608;28;20090;-51
2022/02/23 09:07:13;;;;;;;13.90;4.68;;;10.90;99.90;;;;;;5037067;28;20048;-52
2022/02/23 09:09:38;;;;;;;19.95;5.85;;;10.80;99.90;;;;;;5036831;28;20073;-51
2022/02/23 09:12:05;;;;;;;17.90;6.00;;;10.50;99.90;;;;;;5034482;28;20038;-50
2022/02/23 09:14:31;;;;;;;21.35;5.63;;;11.10;99.90;;;;;;5032790;28;20044;-50
2022/02/23 09:16:57;;;;;;;18.90;5.00;;;11.40;99.90;;;;;;5042380;28;20025;-49
2022/02/23 09:19:22;;;;;;;21.15;5.68;;;11.00;99.90;;;;;;5034798;28;20082;-50
2022/02/23 09:21:48;;;;;;;18.83;5.10;;;11.30;99.90;;;;;;5039642;28;20741;-50
2022/02/23 09:24:14;;;;;;;14.10;4.80;;;11.40;99.90;;;;;;5039528;28;20078;-51
2022/02/23 09:26:39;;;;;;;18.35;5.90;;;11.30;99.90;;;;;;5038331;28;20024;-51
2022/02/23 09:29:06;;;;;;;16.88;5.85;;;11.30;99.90;;;;;;5037763;28;21013;-51
2022/02/23 09:31:32;;;;;;;20.35;5.10;;;11.70;99.90;;;;;;5040557;28;20045;-51
2022/02/23 09:33:58;;;;;;;17.83;5.03;;;11.80;99.90;;;;;;5042133;28;20096;-50
2022/02/23 09:36:24;;;;;;;18.55;5.40;;;12.00;99.90;;;;;;5041574;28;20059;-51
2022/02/23 09:38:51;;;;;;;23.38;5.88;;;11.80;99.90;;;;;;5039034;28;20025;-51
2022/02/23 09:41:18;;;;;;;18.23;6.57;;;11.40;99.90;;;;;;5037019;28;20025;-51
2022/02/23 09:43:50;;;;;;;16.42;5.20;;;11.50;99.90;;;;;;5038154;28;20093;-51
2022/02/23 09:46:20;;;;;;;17.40;5.38;;;11.30;99.90;;;;;;5039102;28;20119;-52
2022/02/23 09:48:47;;;;;;;23.83;5.55;;;11.20;99.90;;;;;;5036902;28;20041;-51
2022/02/23 09:51:12;;;;;;;18.23;5.28;;;11.30;99.90;;;;;;5036935;28;20552;-50
2022/02/23 09:53:45;;;;;;;23.55;5.35;;;11.60;99.90;;;;;;5039819;28;20050;-51
2022/02/23 09:56:17;;;;;;;15.88;4.47;;;11.80;99.90;;;;;;5040780;28;20452;-51
2022/02/23 09:58:43;;;;;;;21.13;5.05;;;11.90;99.90;;;;;;5033879;28;20033;-51
2022/02/23 10:01:09;;;;;;;15.52;4.43;;;11.60;99.90;;;;;;5034757;28;20033;-52
2022/02/23 10:03:35;;;;;;;15.45;4.60;;;11.50;99.90;;;;;;5038038;28;20036;-52
2022/02/23 10:06:01;;;;;;;18.63;4.20;;;11.70;99.90;;;;;;5029694;28;20087;-52
2022/02/23 10:08:37;;;;;;;16.58;4.38;;;11.90;99.90;;;;;;5036041;28;20056;-52
2022/02/23 10:11:04;;;;;;;13.75;4.07;;;11.90;99.90;;;;;;5028688;28;20032;-52
2022/02/23 10:13:29;;;;;;;19.75;4.57;;;12.20;99.90;;;;;;5030179;28;20036;-52
2022/02/23 10:15:58;;;;;;;16.40;4.10;;;12.50;99.90;;;;;;5033890;28;20024;-53
2022/02/23 10:18:26;;;;;;;18.05;4.30;;;12.50;99.90;;;;;;5038117;28;20111;-53
2022/02/23 10:20:52;;;;;;;14.90;3.80;;;12.30;99.90;;;;;;5040517;28;20120;-52
2022/02/23 10:23:23;;;;;;;15.65;4.53;;;12.20;99.90;;;;;;5041228;28;20036;-53
2022/02/23 10:25:53;;;;;;;13.70;3.90;;;12.50;99.90;;;;;;5044257;28;20020;-53
2022/02/23 10:28:22;;;;;;;16.48;4.72;;;12.40;99.90;;;;;;5043499;28;20036;-53
2022/02/23 10:30:52;;;;;;;17.42;4.30;;;12.40;99.90;;;;;;5039532;28;20416;-53
2022/02/23 10:33:22;;;;;;;20.33;4.57;;;12.70;99.90;;;;;;5033818;28;20075;-53
2022/02/23 10:36:00;;;;;;;15.55;4.43;;;12.80;99.90;;;;;;5034743;28;20044;-52
2022/02/23 10:38:33;;;;;;;10.52;3.25;;;12.70;99.90;;;;;;5039782;28;20117;-52
2022/02/23 10:40:59;;;;;;;;;;;12.90;99.90;;;;;;5038771;28;20094;-54
2022/02/23 10:43:41;;;;;;;16.45;3.53;;;13.40;99.90;;;;;;5036472;28;20321;-53
2022/02/23 10:46:10;;;;;;;9.88;2.70;;;13.30;99.90;;;;;;5035556;28;20059;-52
2022/02/23 10:48:40;;;;;;;9.70;2.55;;;12.90;99.90;;;;;;5037324;28;20021;-52
2022/02/23 10:51:11;;;;;;;12.27;2.60;;;12.90;99.90;;;;;;5043921;28;20425;-52
2022/02/23 10:53:37;;;;;;;17.13;3.72;;;12.80;99.90;;;;;;5041093;28;21073;-52
2022/02/23 10:56:28;;;;;;;13.98;3.00;;;12.80;99.90;;;;;;5039574;28;20043;-52
2022/02/23 10:59:25;;;;;;;11.75;2.42;;;13.20;99.90;;;;;;5035591;28;20116;-52
2022/02/23 11:01:52;;;;;;;12.45;2.95;;;13.30;99.90;;;;;;5026564;28;20041;-52
2022/02/23 11:04:20;;;;;;;12.75;2.97;;;13.40;99.90;;;;;;5042150;28;20032;-52
2022/02/23 11:06:48;;;;;;;13.48;3.17;;;13.80;99.90;;;;;;5040110;28;20067;-52
2022/02/23 11:09:14;;;;;;;14.15;2.47;;;13.60;99.90;;;;;;5043512;28;20040;-52
2022/02/23 11:11:40;;;;;;;12.93;2.67;;;13.50;99.90;;;;;;5041652;28;20040;-52
2022/02/23 11:14:10;;;;;;;10.88;2.90;;;13.80;99.90;;;;;;5041564;28;20146;-53
2022/02/23 11:16:37;;;;;;;6.78;2.25;;;13.80;99.90;;;;;;5049882;28;20025;-52
2022/02/23 11:19:04;;;;;;;9.50;2.83;;;13.90;99.90;;;;;;5051462;28;20024;-52
2022/02/23 11:21:34;;;;;;;8.63;2.50;;;13.80;99.90;;;;;;5051251;28;20115;-52
2022/02/23 11:24:02;;;;;;;11.25;2.53;;;13.80;99.90;;;;;;5050526;28;20060;-52
2022/02/23 11:26:32;;;;;;;9.93;1.95;;;14.00;99.90;;;;;;5048467;28;20446;-52
2022/02/23 11:29:09;;;;;;;13.77;3.10;;;14.00;99.90;;;;;;5052267;28;20037;-52
2022/02/23 11:31:37;;;;;;;9.70;2.53;;;13.90;99.90;;;;;;5050265;28;20037;-52
2022/02/23 11:34:06;;;;;;;7.78;2.10;;;14.20;99.90;;;;;;5051652;28;20299;-52
2022/02/23 11:36:35;;;;;;;10.82;3.03;;;14.10;99.90;;;;;;5051093;28;20028;-53
2022/02/23 11:39:16;;;;;;;12.73;3.20;;;14.00;99.90;;;;;;5052226;28;20040;-57
2022/02/23 11:41:46;;;;;;;13.43;2.47;;;14.70;99.90;;;;;;5052021;28;20017;-53
2022/02/23 11:44:24;;;;;;;6.75;2.00;;;14.70;99.90;;;;;;5051582;28;20024;-52
2022/02/23 11:46:53;;;;;;;11.75;3.20;;;14.90;99.90;;;;;;5053275;28;20029;-52
2022/02/23 11:49:28;;;;;;;8.77;2.58;;;15.00;99.90;;;;;;5052178;28;20052;-52
2022/02/23 11:52:06;;;;;;;12.10;2.83;;;14.90;99.90;;;;;;5053550;28;20025;-52
2022/02/23 11:54:51;;;;;;;13.35;2.50;;;14.60;99.90;;;;;;5053187;28;20018;-51
2022/02/23 11:57:43;;;;;;;10.85;2.47;;;15.20;99.90;;;;;;5053017;28;20063;-52
2022/02/23 12:00:18;;;;;;;9.50;2.67;;;14.90;99.90;;;;;;5053300;28;20724;-53
2022/02/23 12:02:56;;;;;;;8.52;2.35;;;15.00;99.90;;;;;;5053172;28;20438;-52
2022/02/23 12:05:41;;;;;;;10.40;2.55;;;14.90;99.90;;;;;;5052764;28;20025;-52
2022/02/23 12:08:32;;;;;;;11.48;2.78;;;14.90;99.90;;;;;;5052619;28;20529;-52
2022/02/23 12:11:21;;;;;;;13.07;4.47;;;15.20;99.90;;;;;;5052614;28;20028;-51
2022/02/23 12:13:49;;;;;;;10.88;2.65;;;15.70;99.90;;;;;;5052393;28;20029;-52
2022/02/23 12:16:22;;;;;;;11.57;2.33;;;15.20;99.90;;;;;;5051249;28;20025;-52
2022/02/23 12:18:50;;;;;;;8.50;1.60;;;15.30;99.90;;;;;;5052303;28;20028;-53
2022/02/23 12:21:15;;;;;;;13.25;2.28;;;15.50;99.90;;;;;;5052790;28;20037;-52
2022/02/23 12:23:44;;;;;;;9.43;2.55;;;15.50;99.90;;;;;;5051716;28;20029;-53
2022/02/23 12:26:21;;;;;;;7.88;2.00;;;15.60;99.90;;;;;;5052704;28;20052;-53
2022/02/23 12:28:49;;;;;;;11.05;2.40;;;15.50;99.90;;;;;;5051770;28;20505;-53
2022/02/23 12:31:24;;;;;;;6.70;1.75;;;15.60;99.90;;;;;;5051891;28;20049;-53
2022/02/23 12:33:56;;;;;;;12.20;2.60;;;15.60;99.90;;;;;;5052408;28;20024;-53
2022/02/23 12:36:42;;;;;;;9.65;2.70;;;15.70;99.90;;;;;;5052797;28;20043;-53
2022/02/23 12:39:12;;;;;;;8.35;2.17;;;15.10;99.90;;;;;;5052368;28;20033;-53
2022/02/23 12:41:38;;;;;;;10.40;2.40;;;14.70;99.90;;;;;;5051562;28;20053;-53
2022/02/23 12:44:15;;;;;;;7.47;1.90;;;15.10;99.90;;;;;;5052404;28;20033;-53
2022/02/23 12:46:51;;;;;;;5.47;1.20;;;14.80;98.70;;;;;;5052283;28;20434;-53
2022/02/23 12:49:18;;;;;;;9.45;1.83;;;14.40;97.90;;;;;;5052439;28;20017;-53